createdAt,value
2023-01-17T00:02:46.250Z,97077.56
2023-01-17T00:08:07.809Z,97069.28
2023-01-17T00:13:09.906Z,97081.03
2023-01-17T00:18:12.147Z,97076.28
2023-01-17T00:23:40.512Z,97086.06
2023-01-17T00:28:43.387Z,97096.72
2023-01-17T00:33:45.491Z,97097.16
2023-01-17T00:38:47.708Z,97108.06
2023-01-17T00:44:08.401Z,97115.63
2023-01-17T00:49:29.423Z,97124.34
2023-01-17T00:54:50.191Z,97140.66
2023-01-17T01:00:11.424Z,97137.44
2023-01-17T01:05:33.109Z,97141.63
2023-01-17T01:10:53.889Z,97156.97
2023-01-17T01:16:17.950Z,97167.28
2023-01-17T01:21:38.513Z,97170.28
2023-01-17T01:26:59.432Z,97173.03
2023-01-17T01:32:20.322Z,97189.22
2023-01-17T01:37:22.428Z,97206.81
2023-01-17T01:42:25.864Z,97215.94
2023-01-17T01:47:35.998Z,97231.38
2023-01-17T01:52:43.512Z,97236.72
2023-01-17T01:57:47.917Z,97239.78
2023-01-17T02:02:50.974Z,97250.19
2023-01-17T02:08:03.986Z,97271.38
2023-01-17T02:13:07.707Z,97278.44
2023-01-17T02:18:19.446Z,97276.53
2023-01-17T02:23:44.256Z,97297.06
2023-01-17T02:29:06.963Z,97318.94
2023-01-17T02:34:33.754Z,97325.78
2023-01-17T02:39:59.099Z,97344.56
2023-01-17T02:45:02.394Z,97341.06
2023-01-17T02:50:25.970Z,97345.53
2023-01-17T02:56:13.691Z,97360.13
2023-01-17T03:01:30.276Z,97374.56
2023-01-17T03:06:40.185Z,97380.78
2023-01-17T03:11:42.976Z,97401.72
2023-01-17T03:16:45.487Z,97415.22
2023-01-17T03:21:49.273Z,97418.34
2023-01-17T03:26:51.528Z,97438.81
2023-01-17T03:31:53.770Z,97432.88
2023-01-17T03:36:55.999Z,97447.53
2023-01-17T03:41:58.246Z,97450.41
2023-01-17T03:47:00.453Z,97467.56
2023-01-17T03:52:02.515Z,97463.28
2023-01-17T03:57:04.705Z,97479.13
2023-01-17T04:02:07.003Z,97483.19
2023-01-17T04:07:09.276Z,97490.00
2023-01-17T04:12:11.588Z,97496.06
2023-01-17T04:17:14.483Z,97486.81
2023-01-17T04:22:16.767Z,97493.94
2023-01-17T04:27:18.964Z,97497.72
2023-01-17T04:32:21.109Z,97497.53
2023-01-17T04:37:23.199Z,97505.75
2023-01-17T04:42:25.265Z,97505.22
2023-01-17T04:47:27.486Z,97510.47
2023-01-17T04:52:30.740Z,97520.34
2023-01-17T04:57:32.911Z,97518.50
2023-01-17T05:02:34.965Z,97521.25
2023-01-17T05:07:37.219Z,97518.75
2023-01-17T05:12:39.355Z,97529.72
2023-01-17T05:17:41.585Z,97531.88
2023-01-17T05:22:43.897Z,97542.13
2023-01-17T05:27:46.252Z,97541.94
2023-01-17T05:32:49.811Z,97548.22
2023-01-17T05:37:52.276Z,97563.91
2023-01-17T05:42:55.753Z,97564.28
2023-01-17T05:47:58.578Z,97574.63
2023-01-17T05:53:03.174Z,97576.91
2023-01-17T05:58:06.005Z,97576.00
2023-01-17T06:03:08.455Z,97593.84
2023-01-17T06:08:11.024Z,97600.75
2023-01-17T06:13:15.275Z,97602.38
2023-01-17T06:18:18.163Z,97601.78
2023-01-17T06:23:20.672Z,97596.13
2023-01-17T06:28:23.391Z,97612.72
2023-01-17T06:33:25.495Z,97627.91
2023-01-17T06:38:29.820Z,97622.63
2023-01-17T06:43:33.724Z,97632.56
2023-01-17T06:48:35.772Z,97642.63
2023-01-17T06:53:38.035Z,97663.72
2023-01-17T06:58:40.253Z,97657.38
2023-01-17T07:03:42.427Z,97658.63
2023-01-17T07:08:44.990Z,97662.75
2023-01-17T07:13:47.099Z,97660.56
2023-01-17T07:18:49.660Z,97665.69
2023-01-17T07:23:51.805Z,97665.66
2023-01-17T07:28:54.061Z,97669.19
2023-01-17T07:33:56.179Z,97673.06
2023-01-17T07:38:58.290Z,97677.81
2023-01-17T07:44:00.583Z,97682.94
2023-01-17T07:49:02.989Z,97678.47
2023-01-17T07:54:05.243Z,97680.34
2023-01-17T07:59:07.336Z,97680.00
2023-01-17T08:04:10.441Z,97676.47
2023-01-17T08:09:12.605Z,97671.66
2023-01-17T08:14:14.728Z,97680.97
2023-01-17T08:19:17.472Z,97674.47
2023-01-17T08:24:19.710Z,97676.19
2023-01-17T08:29:22.451Z,97684.25
2023-01-17T08:34:27.207Z,97679.38
2023-01-17T08:39:29.328Z,97676.91
2023-01-17T08:44:31.500Z,97673.50
2023-01-17T08:49:33.581Z,97682.63
2023-01-17T08:54:35.708Z,97682.22
2023-01-17T08:59:37.749Z,97699.22
2023-01-17T09:04:40.017Z,97701.13
2023-01-17T09:09:42.244Z,97706.59
2023-01-17T09:14:44.347Z,97699.03
2023-01-17T09:19:48.635Z,97699.31
2023-01-17T09:24:50.954Z,97697.47
2023-01-17T09:29:53.059Z,97705.25
2023-01-17T09:34:58.028Z,97712.66
2023-01-17T09:40:00.112Z,97718.47
2023-01-17T09:45:02.389Z,97718.84
2023-01-17T09:50:27.409Z,97729.38
2023-01-17T09:55:37.346Z,97726.91
2023-01-17T10:00:42.369Z,97730.91
2023-01-17T10:06:08.121Z,97731.16
2023-01-17T10:11:20.359Z,97735.81
2023-01-17T10:16:34.665Z,97733.72
2023-01-17T10:22:02.402Z,97734.22
2023-01-17T10:27:18.426Z,97732.91
2023-01-17T10:32:23.853Z,97729.19
2023-01-17T10:37:41.040Z,97723.59
2023-01-17T10:43:00.876Z,97723.66
2023-01-17T10:48:18.699Z,97719.38
2023-01-17T10:53:39.446Z,97719.63
2023-01-17T10:58:41.599Z,97715.47
2023-01-17T11:03:45.485Z,97722.81
2023-01-17T11:08:57.542Z,97707.91
2023-01-17T11:14:01.794Z,97710.81
2023-01-17T11:19:17.684Z,97725.16
2023-01-17T11:24:26.528Z,97712.72
2023-01-17T11:29:40.035Z,97712.84
2023-01-17T11:34:42.167Z,97711.69
2023-01-17T11:39:48.065Z,97710.75
2023-01-17T11:44:50.629Z,97715.63
2023-01-17T11:49:52.959Z,97715.19
2023-01-17T11:54:55.542Z,97718.66
2023-01-17T12:00:20.293Z,97707.94
2023-01-17T12:05:30.099Z,97701.28
2023-01-17T12:10:51.064Z,97696.28
2023-01-17T12:15:53.144Z,97690.16
2023-01-17T12:21:12.504Z,97676.38
2023-01-17T12:26:30.360Z,97682.84
2023-01-17T12:31:36.944Z,97663.50
2023-01-17T12:36:54.488Z,97663.97
2023-01-17T12:42:01.480Z,97675.56
2023-01-17T12:47:04.988Z,97674.28
2023-01-17T12:52:21.455Z,97677.19
2023-01-17T12:57:28.373Z,97680.69
2023-01-17T13:02:38.079Z,97671.84
2023-01-17T13:07:51.764Z,97675.91
2023-01-17T13:12:58.099Z,97667.16
2023-01-17T13:18:12.053Z,97673.94
2023-01-17T13:23:29.088Z,97670.53
2023-01-17T13:28:55.120Z,97672.44
2023-01-17T13:34:19.809Z,97669.50
2023-01-17T13:39:37.238Z,97664.19
2023-01-17T13:44:39.400Z,97669.84
2023-01-17T13:49:42.235Z,97673.34
2023-01-17T13:54:47.049Z,97670.09
2023-01-17T13:59:49.534Z,97676.94
2023-01-17T14:05:15.372Z,97678.56
2023-01-17T14:10:47.868Z,97687.22
2023-01-17T14:15:51.152Z,97683.47
2023-01-17T14:21:07.010Z,97690.03
2023-01-17T14:26:38.509Z,97691.84
2023-01-17T14:31:40.731Z,97688.38
2023-01-17T14:36:42.791Z,97684.81
2023-01-17T14:41:45.636Z,97692.00
2023-01-17T14:46:48.967Z,97703.63
2023-01-17T14:52:04.659Z,97698.38
2023-01-17T14:57:36.355Z,97702.28
2023-01-17T15:02:43.240Z,97699.78
2023-01-17T15:07:47.140Z,97697.69
2023-01-17T15:12:49.856Z,97705.00
2023-01-17T15:17:53.791Z,97684.66
2023-01-17T15:22:56.442Z,97705.13
2023-01-17T15:27:58.625Z,97704.19
2023-01-17T15:33:00.705Z,97711.25
2023-01-17T15:38:05.194Z,97726.50
2023-01-17T15:43:19.881Z,97712.38
2023-01-17T15:48:41.488Z,97719.81
2023-01-17T15:53:44.008Z,97708.75
2023-01-17T15:58:48.540Z,97726.94
2023-01-17T16:03:54.941Z,97721.16
2023-01-17T16:08:57.083Z,97725.88
2023-01-17T16:13:59.203Z,97726.03
2023-01-17T16:19:01.894Z,97723.69
2023-01-17T16:24:05.755Z,97732.50
2023-01-17T16:29:08.494Z,97732.09
2023-01-17T16:34:14.666Z,97737.22
2023-01-17T16:39:16.869Z,97743.66
2023-01-17T16:44:18.980Z,97739.00
2023-01-17T16:49:21.309Z,97748.91
2023-01-17T16:54:25.092Z,97768.31
2023-01-17T16:59:36.734Z,97776.94
2023-01-17T17:04:45.052Z,97779.38
2023-01-17T17:09:47.739Z,97776.50
2023-01-17T17:14:49.921Z,97782.31
2023-01-17T17:19:52.389Z,97783.81
2023-01-17T17:24:54.782Z,97788.25
2023-01-17T17:29:57.001Z,97783.88
2023-01-17T17:34:59.393Z,97793.13
2023-01-17T17:40:01.722Z,97795.25
2023-01-17T17:45:04.125Z,97790.22
2023-01-17T17:50:07.084Z,97791.88
2023-01-17T17:55:10.063Z,97800.97
2023-01-17T18:00:12.588Z,97807.84
2023-01-17T18:05:14.766Z,97810.91
2023-01-17T18:10:17.106Z,97809.78
2023-01-17T18:15:20.753Z,97825.97
2023-01-17T18:20:23.011Z,97839.41
2023-01-17T18:25:25.320Z,97839.28
2023-01-17T18:30:27.674Z,97836.84
2023-01-17T18:35:29.944Z,97837.88
2023-01-17T18:40:34.700Z,97848.97
2023-01-17T18:45:36.861Z,97855.94
2023-01-17T18:50:39.040Z,97872.53
2023-01-17T18:56:06.526Z,97866.41
2023-01-17T19:01:13.323Z,97875.16
2023-01-17T19:06:18.106Z,97882.84
2023-01-17T19:11:22.246Z,97879.94
2023-01-17T19:16:28.712Z,97888.22
2023-01-17T19:21:32.338Z,97874.13
2023-01-17T19:26:34.524Z,97880.78
2023-01-17T19:31:42.874Z,97884.72
2023-01-17T19:36:45.828Z,97895.41
2023-01-17T19:41:48.064Z,97903.47
2023-01-17T19:46:50.319Z,97904.66
2023-01-17T19:51:52.724Z,97909.53
2023-01-17T19:56:54.947Z,97911.28
2023-01-17T20:01:57.348Z,97913.22
2023-01-17T20:06:59.606Z,97913.63
2023-01-17T20:12:02.661Z,97920.13
2023-01-17T20:17:04.760Z,97921.06
2023-01-17T20:22:07.172Z,97923.56
2023-01-17T20:27:09.380Z,97926.72
2023-01-17T20:32:11.683Z,97931.44
2023-01-17T20:37:14.016Z,97934.16
2023-01-17T20:42:16.204Z,97947.19
2023-01-17T20:47:18.867Z,97950.16
2023-01-17T20:52:21.377Z,97946.44
2023-01-17T20:57:23.638Z,97957.75
2023-01-17T21:11:27.862Z,97958.88
2023-01-17T21:21:30.471Z,97973.69
2023-01-17T21:31:35.087Z,97976.84
2023-01-17T21:41:39.549Z,97982.22
2023-01-17T21:51:54.913Z,97984.47
2023-01-17T22:01:58.301Z,97992.56
2023-01-17T22:12:00.450Z,97997.91
2023-01-17T22:22:02.745Z,98011.50
2023-01-17T22:32:05.085Z,98007.44
2023-01-17T22:42:08.311Z,98011.06
2023-01-17T22:52:10.604Z,98014.03
2023-01-17T23:02:12.824Z,98016.97
2023-01-17T23:12:15.520Z,98021.56
2023-01-17T23:22:26.930Z,98021.03
2023-01-17T23:32:29.211Z,98019.31
2023-01-17T23:42:50.246Z,98013.41
2023-01-17T23:52:52.386Z,98012.88
